createdAt,value
2023-05-05T00:00:41.066Z,15.93
2023-05-05T00:03:43.783Z,15.95
2023-05-05T00:06:47.960Z,15.92
2023-05-05T00:09:50.664Z,15.92
2023-05-05T00:12:53.394Z,15.92
2023-05-05T00:15:56.205Z,15.92
2023-05-05T00:19:00.218Z,15.89
2023-05-05T00:22:04.269Z,15.87
2023-05-05T00:25:07.707Z,15.84
2023-05-05T00:28:10.570Z,15.84
2023-05-05T00:31:13.329Z,15.80
2023-05-05T00:34:16.011Z,15.79
2023-05-05T00:37:20.096Z,15.74
2023-05-05T00:40:23.498Z,15.74
2023-05-05T00:43:26.356Z,15.69
2023-05-05T00:46:31.322Z,15.60
2023-05-05T00:49:34.165Z,15.58
2023-05-05T00:52:38.962Z,15.52
2023-05-05T00:55:41.940Z,15.39
2023-05-05T00:58:45.379Z,15.33
2023-05-05T01:01:48.180Z,15.27
2023-05-05T01:04:51.005Z,15.28
2023-05-05T01:08:19.774Z,15.23
2023-05-05T01:11:27.989Z,15.17
2023-05-05T01:14:40.815Z,15.18
2023-05-05T01:17:53.487Z,15.17
2023-05-05T01:21:02.854Z,15.17
2023-05-05T01:24:39.832Z,15.21
2023-05-05T01:28:06.331Z,15.15
2023-05-05T01:31:24.814Z,15.14
2023-05-05T01:34:34.618Z,15.10
2023-05-05T01:37:44.433Z,15.03
2023-05-05T01:40:51.024Z,14.95
2023-05-05T01:43:55.379Z,14.83
2023-05-05T01:47:00.695Z,14.75
2023-05-05T01:50:07.296Z,14.70
2023-05-05T01:53:11.495Z,14.63
2023-05-05T01:56:15.428Z,14.64
2023-05-05T01:59:19.841Z,14.64
2023-05-05T02:02:24.312Z,14.63
2023-05-05T02:05:29.094Z,14.64
2023-05-05T02:08:33.813Z,14.61
2023-05-05T02:11:37.032Z,14.63
2023-05-05T02:14:41.576Z,14.59
2023-05-05T02:17:44.822Z,14.57
2023-05-05T02:20:49.103Z,14.59
2023-05-05T02:23:51.937Z,14.59
2023-05-05T02:26:57.198Z,14.56
2023-05-05T02:30:03.065Z,14.59
2023-05-05T02:33:09.637Z,14.54
2023-05-05T02:36:18.813Z,14.48
2023-05-05T02:39:27.368Z,14.46
2023-05-05T02:42:36.312Z,14.44
2023-05-05T02:45:39.171Z,14.43
2023-05-05T02:48:41.879Z,14.35
2023-05-05T02:51:46.016Z,14.31
2023-05-05T02:54:48.781Z,14.29
2023-05-05T02:57:57.997Z,14.25
2023-05-05T03:01:09.531Z,14.23
2023-05-05T03:04:17.010Z,14.23
2023-05-05T03:07:26.306Z,14.23
2023-05-05T03:10:32.949Z,14.24
2023-05-05T03:13:37.623Z,14.21
2023-05-05T03:16:42.714Z,14.16
2023-05-05T03:19:45.987Z,14.18
2023-05-05T03:22:50.338Z,14.17
2023-05-05T03:25:53.200Z,14.20
2023-05-05T03:28:56.006Z,14.25
2023-05-05T03:31:59.339Z,14.28
2023-05-05T03:35:02.049Z,14.32
2023-05-05T03:38:06.252Z,14.36
2023-05-05T03:41:08.936Z,14.42
2023-05-05T03:44:11.702Z,14.46
2023-05-05T03:47:14.524Z,14.53
2023-05-05T03:50:17.589Z,14.60
2023-05-05T03:53:21.640Z,14.67
2023-05-05T03:56:24.491Z,14.75
2023-05-05T03:59:27.211Z,14.84
2023-05-05T04:02:30.016Z,14.92
2023-05-05T04:05:32.960Z,14.97
2023-05-05T04:08:37.106Z,15.00
2023-05-05T04:11:39.891Z,15.04
2023-05-05T04:14:42.538Z,15.04
2023-05-05T04:17:45.560Z,15.09
2023-05-05T04:20:48.599Z,15.11
2023-05-05T04:23:52.855Z,15.16
2023-05-05T04:26:55.681Z,15.19
2023-05-05T04:29:58.364Z,15.22
2023-05-05T04:33:01.188Z,15.25
2023-05-05T04:36:03.968Z,15.31
2023-05-05T04:39:08.668Z,15.38
2023-05-05T04:42:11.565Z,15.43
2023-05-05T04:45:14.406Z,15.50
2023-05-05T04:48:17.167Z,15.60
2023-05-05T04:51:19.858Z,15.68
2023-05-05T04:54:24.285Z,15.79
2023-05-05T04:57:27.345Z,15.88
2023-05-05T05:00:30.449Z,15.98
2023-05-05T05:03:33.158Z,16.10
2023-05-05T05:06:36.049Z,16.15
2023-05-05T05:09:40.200Z,16.22
2023-05-05T05:12:43.011Z,16.29
2023-05-05T05:15:46.559Z,16.38
2023-05-05T05:18:49.296Z,16.43
2023-05-05T05:21:52.004Z,16.53
2023-05-05T05:24:56.094Z,16.65
2023-05-05T05:28:09.419Z,16.70
2023-05-05T05:31:13.353Z,16.77
2023-05-05T05:34:16.050Z,16.80
2023-05-05T05:37:18.834Z,16.85
2023-05-05T05:40:22.976Z,16.90
2023-05-05T05:43:25.661Z,16.94
2023-05-05T05:46:28.440Z,17.03
2023-05-05T05:49:31.205Z,17.13
2023-05-05T05:52:36.090Z,17.24
2023-05-05T05:55:40.264Z,17.40
2023-05-05T05:58:42.948Z,17.59
2023-05-05T06:01:45.564Z,17.76
2023-05-05T06:04:48.417Z,17.99
2023-05-05T06:07:51.124Z,18.06
2023-05-05T06:10:55.158Z,18.10
2023-05-05T06:13:58.624Z,18.12
2023-05-05T06:17:01.423Z,18.19
2023-05-05T06:20:05.388Z,18.22
2023-05-05T06:23:08.385Z,18.37
2023-05-05T06:26:12.401Z,18.45
2023-05-05T06:29:15.290Z,18.60
2023-05-05T06:32:18.214Z,18.72
2023-05-05T06:35:20.932Z,18.87
2023-05-05T06:38:23.826Z,18.97
2023-05-05T06:41:27.910Z,19.01
2023-05-05T06:44:31.893Z,19.04
2023-05-05T06:47:34.948Z,19.03
2023-05-05T06:50:37.820Z,19.01
2023-05-05T06:53:40.872Z,19.00
2023-05-05T06:56:45.529Z,18.99
2023-05-05T06:59:48.391Z,18.99
2023-05-05T07:02:51.426Z,19.02
2023-05-05T07:05:54.934Z,19.00
2023-05-05T07:08:57.903Z,18.99
2023-05-05T07:12:02.068Z,19.01
2023-05-05T07:15:19.187Z,19.01
2023-05-05T07:18:28.736Z,19.04
2023-05-05T07:21:31.630Z,19.06
2023-05-05T07:24:34.972Z,19.09
2023-05-05T07:27:40.454Z,19.12
2023-05-05T07:30:43.311Z,19.10
2023-05-05T07:33:46.252Z,19.11
2023-05-05T07:36:49.229Z,19.04
2023-05-05T07:39:52.052Z,19.02
2023-05-05T07:42:56.362Z,19.02
2023-05-05T07:45:59.275Z,18.99
2023-05-05T07:49:02.139Z,19.01
2023-05-05T07:52:05.181Z,19.00
2023-05-05T07:55:08.229Z,19.04
2023-05-05T07:58:12.540Z,19.03
2023-05-05T08:01:15.903Z,18.99
2023-05-05T08:04:18.658Z,19.06
2023-05-05T08:07:21.904Z,18.96
2023-05-05T08:10:24.951Z,18.89
2023-05-05T08:13:30.225Z,18.87
2023-05-05T08:16:33.254Z,18.83
2023-05-05T08:19:36.164Z,18.79
2023-05-05T08:22:39.153Z,18.76
2023-05-05T08:25:42.082Z,18.72
2023-05-05T08:28:47.241Z,18.67
2023-05-05T08:31:50.577Z,18.66
2023-05-05T08:34:53.652Z,18.64
2023-05-05T08:37:58.935Z,18.62
2023-05-05T08:41:02.099Z,18.56
2023-05-05T08:44:06.662Z,18.55
2023-05-05T08:47:12.375Z,18.55
2023-05-05T08:50:15.928Z,18.54
2023-05-05T08:53:23.181Z,18.57
2023-05-05T08:56:28.231Z,18.65
2023-05-05T08:59:34.011Z,18.62
2023-05-05T09:02:38.069Z,18.62
2023-05-05T09:05:43.114Z,18.72
2023-05-05T09:08:46.408Z,18.73
2023-05-05T09:11:49.497Z,18.78
2023-05-05T09:14:53.657Z,18.88
2023-05-05T09:17:58.257Z,18.89
2023-05-05T09:21:01.382Z,18.91
2023-05-05T09:24:11.737Z,18.98
2023-05-05T09:27:22.896Z,19.05
2023-05-05T09:30:27.692Z,19.10
2023-05-05T09:36:58.596Z,19.15
2023-05-05T09:40:02.033Z,19.22
2023-05-05T09:43:05.084Z,19.34
2023-05-05T09:46:09.375Z,19.56
2023-05-05T09:49:18.121Z,19.96
2023-05-05T09:52:21.209Z,20.30
2023-05-05T09:55:24.667Z,20.51
2023-05-05T09:58:28.813Z,20.59
2023-05-05T10:01:32.951Z,20.58
2023-05-05T10:04:36.024Z,20.53
2023-05-05T10:07:40.062Z,20.45
2023-05-05T10:10:50.430Z,20.36
2023-05-05T10:13:53.498Z,20.27
2023-05-05T10:16:59.585Z,20.22
2023-05-05T10:20:03.928Z,20.10
2023-05-05T10:23:09.413Z,19.99
2023-05-05T10:26:15.475Z,19.97
2023-05-05T10:29:28.449Z,19.97
2023-05-05T10:35:51.810Z,19.93
2023-05-05T10:38:57.854Z,19.91
2023-05-05T10:42:02.986Z,19.91
2023-05-05T10:45:07.133Z,19.88
2023-05-05T10:48:33.961Z,19.85
2023-05-05T10:51:45.318Z,19.79
2023-05-05T10:54:53.738Z,19.73
2023-05-05T10:57:57.072Z,19.75
2023-05-05T11:01:00.254Z,19.73
2023-05-05T11:04:21.175Z,19.76
2023-05-05T11:07:26.334Z,19.83
2023-05-05T11:10:45.281Z,19.96
2023-05-05T11:13:48.062Z,20.01
2023-05-05T11:16:51.019Z,20.16
2023-05-05T11:19:55.265Z,20.39
2023-05-05T11:23:23.369Z,20.51
2023-05-05T11:26:52.421Z,20.60
2023-05-05T11:30:10.747Z,20.67
2023-05-05T11:33:26.034Z,20.80
2023-05-05T11:36:41.759Z,21.07
2023-05-05T11:39:54.670Z,21.29
2023-05-05T11:43:05.945Z,21.62
2023-05-05T11:46:12.599Z,21.87
2023-05-05T11:49:27.548Z,22.13
2023-05-05T11:52:31.834Z,22.28
2023-05-05T11:55:34.911Z,22.28
2023-05-05T11:58:37.876Z,22.32
2023-05-05T12:01:41.780Z,22.41
2023-05-05T12:04:44.664Z,22.38
2023-05-05T12:07:49.091Z,22.21
2023-05-05T12:10:51.962Z,22.18
2023-05-05T12:14:09.347Z,22.27
2023-05-05T12:17:12.169Z,22.20
2023-05-05T12:20:15.001Z,22.11
2023-05-05T12:23:19.212Z,22.08
2023-05-05T12:26:29.024Z,22.12
2023-05-05T12:29:31.760Z,22.14
2023-05-05T12:32:34.522Z,22.13
2023-05-05T12:35:37.853Z,22.07
2023-05-05T12:38:42.656Z,22.07
2023-05-05T12:41:45.740Z,22.10
2023-05-05T12:44:49.177Z,22.19
2023-05-05T12:47:52.090Z,22.37
2023-05-05T12:50:55.124Z,22.53
2023-05-05T12:54:07.240Z,22.80
2023-05-05T12:57:12.431Z,23.04
2023-05-05T13:00:17.533Z,23.23
2023-05-05T13:03:20.696Z,23.35
2023-05-05T13:06:24.739Z,23.33
2023-05-05T13:09:30.997Z,23.24
2023-05-05T13:12:33.713Z,23.45
2023-05-05T13:15:36.599Z,23.77
2023-05-05T13:18:46.162Z,23.92
2023-05-05T13:21:49.128Z,24.07
2023-05-05T13:24:53.657Z,24.00
2023-05-05T13:27:56.527Z,23.76
2023-05-05T13:30:59.927Z,23.88
2023-05-05T13:34:02.697Z,23.96
2023-05-05T13:37:05.433Z,23.81
2023-05-05T13:40:13.362Z,23.89
2023-05-05T13:43:16.241Z,23.87
2023-05-05T13:46:20.369Z,23.61
2023-05-05T13:49:23.835Z,23.46
2023-05-05T13:52:27.577Z,23.26
2023-05-05T13:55:32.700Z,23.02
2023-05-05T13:58:37.211Z,22.83
2023-05-05T14:01:40.686Z,22.62
2023-05-05T14:04:43.547Z,22.51
2023-05-05T14:07:46.964Z,22.38
2023-05-05T14:10:52.170Z,22.20
2023-05-05T14:13:55.216Z,22.06
2023-05-05T14:16:58.223Z,21.99
2023-05-05T14:20:01.274Z,21.92
2023-05-05T14:23:04.282Z,21.90
2023-05-05T14:26:09.547Z,21.71
2023-05-05T14:29:12.239Z,21.63
2023-05-05T14:32:15.136Z,21.54
2023-05-05T14:35:18.396Z,21.54
2023-05-05T14:38:21.280Z,21.51
2023-05-05T14:41:28.357Z,21.38
2023-05-05T14:44:31.466Z,21.34
2023-05-05T14:47:34.741Z,21.34
2023-05-05T14:50:38.632Z,21.33
2023-05-05T14:53:42.191Z,21.32
2023-05-05T14:56:46.398Z,21.32
2023-05-05T14:59:51.944Z,21.29
2023-05-05T15:02:54.782Z,21.30
2023-05-05T15:05:57.791Z,21.24
2023-05-05T15:09:00.540Z,21.19
2023-05-05T15:12:04.930Z,21.19
2023-05-05T15:15:09.477Z,21.16
2023-05-05T15:18:12.446Z,21.12
2023-05-05T15:21:15.330Z,21.11
2023-05-05T15:24:18.327Z,21.07
2023-05-05T15:27:22.915Z,20.98
2023-05-05T15:30:26.935Z,20.88
2023-05-05T15:33:30.911Z,20.78
2023-05-05T15:36:33.684Z,20.69
2023-05-05T15:39:36.402Z,20.62
2023-05-05T15:42:40.798Z,20.61
2023-05-05T15:45:44.354Z,20.52
2023-05-05T15:48:47.199Z,20.47
2023-05-05T15:51:50.177Z,20.44
2023-05-05T15:54:53.158Z,20.38
2023-05-05T15:57:57.490Z,20.35
2023-05-05T16:01:00.649Z,20.28
2023-05-05T16:04:03.687Z,20.22
2023-05-05T16:07:06.358Z,20.10
2023-05-05T16:10:10.718Z,19.99
2023-05-05T16:13:14.838Z,19.82
2023-05-05T16:16:17.733Z,19.66
2023-05-05T16:19:20.851Z,19.51
2023-05-05T16:22:23.760Z,19.36
2023-05-05T16:25:26.459Z,19.24
2023-05-05T16:28:30.623Z,19.13
2023-05-05T16:31:34.071Z,19.01
2023-05-05T16:34:36.834Z,18.97
2023-05-05T16:37:39.496Z,18.81
2023-05-05T16:40:42.248Z,18.60
2023-05-05T16:43:46.304Z,18.44
2023-05-05T16:46:49.148Z,18.34
2023-05-05T16:49:52.518Z,18.26
2023-05-05T16:52:56.349Z,18.20
2023-05-05T16:55:59.054Z,18.14
2023-05-05T16:59:03.098Z,18.16
2023-05-05T17:02:05.920Z,18.04
2023-05-05T17:05:09.735Z,17.97
2023-05-05T17:08:14.193Z,17.88
2023-05-05T17:11:17.222Z,17.87
2023-05-05T17:14:21.280Z,17.82
2023-05-05T17:17:23.997Z,17.83
2023-05-05T17:20:26.814Z,17.75
2023-05-05T17:23:29.524Z,17.72
2023-05-05T17:26:32.269Z,17.69
2023-05-05T17:29:40.959Z,17.63
2023-05-05T17:32:43.686Z,17.63
2023-05-05T17:35:47.192Z,17.57
2023-05-05T17:38:49.952Z,17.46
2023-05-05T17:41:52.785Z,17.43
2023-05-05T17:44:56.801Z,17.37
2023-05-05T17:47:59.718Z,17.22
2023-05-05T17:51:02.779Z,17.12
2023-05-05T17:54:05.773Z,17.11
2023-05-05T17:57:08.452Z,17.06
2023-05-05T18:00:13.794Z,17.06
2023-05-05T18:03:16.609Z,17.03
2023-05-05T18:06:19.560Z,16.99
2023-05-05T18:09:22.404Z,16.95
2023-05-05T18:12:25.784Z,16.92
2023-05-05T18:15:30.760Z,16.89
2023-05-05T18:18:33.537Z,16.89
2023-05-05T18:21:36.503Z,16.87
2023-05-05T18:24:39.320Z,16.84
2023-05-05T18:27:43.605Z,16.81
2023-05-05T18:30:48.011Z,16.80
2023-05-05T18:33:50.733Z,16.77
2023-05-05T18:36:54.249Z,16.75
2023-05-05T18:39:57.228Z,16.74
2023-05-05T18:42:59.966Z,16.71
2023-05-05T18:46:04.080Z,16.65
2023-05-05T18:49:07.386Z,16.70
2023-05-05T18:52:10.104Z,16.69
2023-05-05T18:55:12.785Z,16.69
2023-05-05T18:58:16.722Z,16.69
2023-05-05T19:01:20.848Z,16.66
2023-05-05T19:04:30.610Z,16.64
2023-05-05T19:07:35.801Z,16.60
2023-05-05T19:10:38.901Z,16.63
2023-05-05T19:13:41.756Z,16.62
2023-05-05T19:16:45.968Z,16.63
2023-05-05T19:19:49.167Z,16.62
2023-05-05T19:22:51.950Z,16.60
2023-05-05T19:25:54.768Z,16.62
2023-05-05T19:28:57.430Z,16.60
2023-05-05T19:32:01.489Z,16.54
2023-05-05T19:35:06.764Z,16.48
2023-05-05T19:38:10.886Z,16.48
2023-05-05T19:41:13.698Z,16.46
2023-05-05T19:44:16.549Z,16.45
2023-05-05T19:47:20.878Z,16.48
2023-05-05T19:50:24.092Z,16.51
2023-05-05T19:53:27.823Z,16.53
2023-05-05T19:56:30.548Z,16.54
2023-05-05T19:59:33.670Z,16.48
2023-05-05T20:02:38.118Z,16.52
2023-05-05T20:05:41.034Z,16.49
2023-05-05T20:08:43.911Z,16.55
2023-05-05T20:11:46.728Z,16.57
2023-05-05T20:14:49.683Z,16.57
2023-05-05T20:17:53.740Z,16.55
2023-05-05T20:20:56.513Z,16.55
2023-05-05T20:23:59.656Z,16.54
2023-05-05T20:27:03.269Z,16.49
2023-05-05T20:30:07.403Z,16.46
2023-05-05T20:33:11.743Z,16.44
2023-05-05T20:36:14.449Z,16.43
2023-05-05T20:39:17.272Z,16.46
2023-05-05T20:42:20.050Z,16.43
2023-05-05T20:45:22.791Z,16.39
2023-05-05T20:48:26.860Z,16.36
2023-05-05T20:51:32.027Z,16.29
2023-05-05T20:54:34.772Z,16.25
2023-05-05T20:57:37.555Z,16.24
2023-05-05T21:00:40.682Z,16.25
2023-05-05T21:03:44.828Z,16.24
2023-05-05T21:06:47.495Z,16.25
2023-05-05T21:09:50.499Z,16.30
2023-05-05T21:12:53.320Z,16.33
2023-05-05T21:15:56.102Z,16.32
2023-05-05T21:19:00.533Z,16.32
2023-05-05T21:22:03.180Z,16.28
2023-05-05T21:25:11.188Z,16.26
2023-05-05T21:28:13.914Z,16.24
2023-05-05T21:34:23.806Z,16.22
2023-05-05T21:37:26.763Z,16.18
2023-05-05T21:40:29.505Z,16.21
2023-05-05T21:43:32.190Z,16.18
2023-05-05T21:46:35.065Z,16.17
2023-05-05T21:49:39.254Z,16.17
2023-05-05T21:52:41.960Z,16.19
2023-05-05T21:55:45.582Z,16.20
2023-05-05T21:58:48.353Z,16.17
2023-05-05T22:01:51.189Z,16.16
2023-05-05T22:04:55.477Z,16.14
2023-05-05T22:07:58.308Z,16.18
2023-05-05T22:11:01.694Z,16.17
2023-05-05T22:14:04.393Z,16.16
2023-05-05T22:17:07.764Z,16.13
2023-05-05T22:20:12.662Z,16.13
2023-05-05T22:23:16.172Z,16.09
2023-05-05T22:26:18.953Z,16.07
2023-05-05T22:29:21.777Z,16.04
2023-05-05T22:32:24.559Z,16.00
2023-05-05T22:35:28.643Z,16.03
2023-05-05T22:38:31.394Z,16.05
2023-05-05T22:41:34.156Z,16.06
2023-05-05T22:44:37.058Z,16.08
2023-05-05T22:47:39.867Z,16.08
2023-05-05T22:50:44.139Z,16.07
2023-05-05T22:53:46.856Z,16.08
2023-05-05T22:56:49.710Z,16.04
2023-05-05T22:59:52.472Z,15.99
2023-05-05T23:02:55.342Z,16.02
2023-05-05T23:05:59.867Z,16.00
2023-05-05T23:09:02.738Z,15.99
2023-05-05T23:12:05.533Z,15.97
2023-05-05T23:15:09.979Z,15.97
2023-05-05T23:18:13.072Z,15.94
2023-05-05T23:21:17.292Z,15.86
2023-05-05T23:24:20.176Z,15.82
2023-05-05T23:27:23.718Z,15.75
2023-05-05T23:30:26.484Z,15.72
2023-05-05T23:33:29.147Z,15.68
2023-05-05T23:36:33.266Z,15.68
2023-05-05T23:39:36.144Z,15.64
2023-05-05T23:42:38.927Z,15.60
2023-05-05T23:45:41.719Z,15.59
2023-05-05T23:48:44.392Z,15.55
2023-05-05T23:51:48.464Z,15.58
2023-05-05T23:54:51.247Z,15.56
2023-05-05T23:57:54.019Z,15.53
